sensor_id;sensor_type;location;lat;lon;timestamp;pressure;altitude;pressure_sealevel;temperature;humidity
45813;BME280;31519;45.408;10.962;2023-02-04T00:00:32;101065.28;;;6.29;100.00
45813;BME280;31519;45.408;10.962;2023-02-04T00:03:24;101077.00;;;6.63;100.00
45813;BME280;31519;45.408;10.962;2023-02-04T00:05:52;101075.31;;;6.12;100.00
45813;BME280;31519;45.408;10.962;2023-02-04T00:08:20;101075.25;;;6.02;100.00
45813;BME280;31519;45.408;10.962;2023-02-04T00:10:49;101085.38;;;6.25;100.00
45813;BME280;31519;45.408;10.962;2023-02-04T00:13:17;101074.31;;;6.38;100.00
45813;BME280;31519;45.408;10.962;2023-02-04T00:15:45;101061.63;;;6.55;100.00
45813;BME280;31519;45.408;10.962;2023-02-04T00:18:13;101067.72;;;6.41;100.00
45813;BME280;31519;45.408;10.962;2023-02-04T00:20:41;101062.94;;;6.28;100.00
45813;BME280;31519;45.408;10.962;2023-02-04T00:23:09;101052.59;;;6.26;100.00
45813;BME280;31519;45.408;10.962;2023-02-04T00:25:37;101064.25;;;6.35;100.00
45813;BME280;31519;45.408;10.962;2023-02-04T00:28:05;101081.47;;;6.43;100.00
45813;BME280;31519;45.408;10.962;2023-02-04T00:30:34;101100.50;;;6.35;100.00
45813;BME280;31519;45.408;10.962;2023-02-04T00:33:02;101082.22;;;6.33;100.00
45813;BME280;31519;45.408;10.962;2023-02-04T00:35:30;101085.66;;;6.34;100.00
45813;BME280;31519;45.408;10.962;2023-02-04T00:37:58;101086.72;;;6.38;100.00
45813;BME280;31519;45.408;10.962;2023-02-04T00:40:26;101086.72;;;6.28;100.00
45813;BME280;31519;45.408;10.962;2023-02-04T00:42:55;101089.34;;;6.22;100.00
45813;BME280;31519;45.408;10.962;2023-02-04T00:45:23;101088.59;;;6.42;100.00
45813;BME280;31519;45.408;10.962;2023-02-04T00:47:52;101075.91;;;6.39;100.00
45813;BME280;31519;45.408;10.962;2023-02-04T00:50:20;101081.16;;;6.24;100.00
45813;BME280;31519;45.408;10.962;2023-02-04T00:52:48;101065.31;;;6.39;100.00
45813;BME280;31519;45.408;10.962;2023-02-04T00:55:16;101064.19;;;6.05;100.00
45813;BME280;31519;45.408;10.962;2023-02-04T00:57:45;101062.09;;;6.17;100.00
45813;BME280;31519;45.408;10.962;2023-02-04T01:00:16;101067.69;;;6.31;100.00
45813;BME280;31519;45.408;10.962;2023-02-04T01:02:44;101071.88;;;6.16;100.00
45813;BME280;31519;45.408;10.962;2023-02-04T01:05:13;101069.22;;;6.11;100.00
45813;BME280;31519;45.408;10.962;2023-02-04T01:07:41;101068.41;;;6.11;100.00
45813;BME280;31519;45.408;10.962;2023-02-04T01:10:10;101055.25;;;6.31;100.00
45813;BME280;31519;45.408;10.962;2023-02-04T01:12:38;101053.91;;;6.29;100.00
45813;BME280;31519;45.408;10.962;2023-02-04T01:15:07;101056.53;;;6.23;100.00
45813;BME280;31519;45.408;10.962;2023-02-04T01:17:35;101051.25;;;6.18;100.00
45813;BME280;31519;45.408;10.962;2023-02-04T01:20:03;101058.94;;;6.25;100.00
45813;BME280;31519;45.408;10.962;2023-02-04T01:22:31;101067.91;;;6.09;100.00
45813;BME280;31519;45.408;10.962;2023-02-04T01:24:59;101049.13;;;6.20;100.00
45813;BME280;31519;45.408;10.962;2023-02-04T01:27:43;101037.50;;;6.21;100.00
45813;BME280;31519;45.408;10.962;2023-02-04T01:30:13;101044.56;;;5.91;100.00
45813;BME280;31519;45.408;10.962;2023-02-04T01:32:41;101050.94;;;6.00;100.00
45813;BME280;31519;45.408;10.962;2023-02-04T01:35:10;101044.06;;;6.04;100.00
45813;BME280;31519;45.408;10.962;2023-02-04T01:37:38;101062.31;;;6.05;100.00
45813;BME280;31519;45.408;10.962;2023-02-04T01:40:07;101056.53;;;6.13;100.00
45813;BME280;31519;45.408;10.962;2023-02-04T01:42:37;101060.78;;;6.30;100.00
45813;BME280;31519;45.408;10.962;2023-02-04T01:45:06;101059.44;;;6.17;100.00
45813;BME280;31519;45.408;10.962;2023-02-04T01:47:35;101066.63;;;6.42;99.67
45813;BME280;31519;45.408;10.962;2023-02-04T01:50:06;101058.13;;;6.19;100.00
45813;BME280;31519;45.408;10.962;2023-02-04T01:52:36;101063.69;;;6.28;99.34
45813;BME280;31519;45.408;10.962;2023-02-04T01:55:18;101071.06;;;6.16;99.37
45813;BME280;31519;45.408;10.962;2023-02-04T01:57:48;101056.78;;;6.07;99.57
45813;BME280;31519;45.408;10.962;2023-02-04T02:00:25;101048.06;;;6.11;98.57
45813;BME280;31519;45.408;10.962;2023-02-04T02:02:53;101054.91;;;6.02;98.66
45813;BME280;31519;45.408;10.962;2023-02-04T02:05:29;101048.03;;;6.06;98.70
45813;BME280;31519;45.408;10.962;2023-02-04T02:07:59;101037.72;;;6.10;97.61
45813;BME280;31519;45.408;10.962;2023-02-04T02:10:30;101035.09;;;6.10;98.10
45813;BME280;31519;45.408;10.962;2023-02-04T02:12:59;101029.28;;;6.13;97.91
45813;BME280;31519;45.408;10.962;2023-02-04T02:15:30;101046.53;;;5.68;100.00
45813;BME280;31519;45.408;10.962;2023-02-04T02:17:59;101043.00;;;6.00;99.11
45813;BME280;31519;45.408;10.962;2023-02-04T02:20:29;101054.59;;;5.89;99.40
45813;BME280;31519;45.408;10.962;2023-02-04T02:25:32;101036.63;;;5.91;98.97
45813;BME280;31519;45.408;10.962;2023-02-04T02:28:14;101022.38;;;6.02;99.18
45813;BME280;31519;45.408;10.962;2023-02-04T02:30:44;101018.41;;;5.94;98.33
45813;BME280;31519;45.408;10.962;2023-02-04T02:33:17;101016.22;;;5.81;98.95
45813;BME280;31519;45.408;10.962;2023-02-04T02:35:46;101009.84;;;5.77;99.65
45813;BME280;31519;45.408;10.962;2023-02-04T02:38:18;101000.13;;;5.93;99.14
45813;BME280;31519;45.408;10.962;2023-02-04T02:40:47;101004.84;;;5.80;98.56
45813;BME280;31519;45.408;10.962;2023-02-04T02:43:21;100999.00;;;5.78;98.45
45813;BME280;31519;45.408;10.962;2023-02-04T02:45:51;100992.13;;;5.82;98.68
45813;BME280;31519;45.408;10.962;2023-02-04T02:48:20;100991.84;;;5.74;99.09
45813;BME280;31519;45.408;10.962;2023-02-04T02:50:50;100993.97;;;5.67;99.74
45813;BME280;31519;45.408;10.962;2023-02-04T02:53:20;101003.50;;;5.78;99.17
45813;BME280;31519;45.408;10.962;2023-02-04T02:55:50;100989.81;;;5.91;98.69
45813;BME280;31519;45.408;10.962;2023-02-04T02:58:31;101004.94;;;6.11;97.89
45813;BME280;31519;45.408;10.962;2023-02-04T03:01:05;101009.13;;;5.92;97.95
45813;BME280;31519;45.408;10.962;2023-02-04T03:03:40;100995.94;;;6.02;98.05
45813;BME280;31519;45.408;10.962;2023-02-04T03:06:14;100999.03;;;5.84;97.81
45813;BME280;31519;45.408;10.962;2023-02-04T03:08:44;101007.22;;;5.77;98.58
45813;BME280;31519;45.408;10.962;2023-02-04T03:11:12;100999.31;;;5.87;98.58
45813;BME280;31519;45.408;10.962;2023-02-04T03:13:41;100990.34;;;5.88;98.24
45813;BME280;31519;45.408;10.962;2023-02-04T03:16:10;100980.22;;;5.70;99.79
45813;BME280;31519;45.408;10.962;2023-02-04T03:18:38;100981.03;;;5.75;99.39
45813;BME280;31519;45.408;10.962;2023-02-04T03:21:07;100982.31;;;5.73;99.20
45813;BME280;31519;45.408;10.962;2023-02-04T03:23:36;101003.75;;;5.71;98.84
45813;BME280;31519;45.408;10.962;2023-02-04T03:26:05;101002.69;;;5.67;98.92
45813;BME280;31519;45.408;10.962;2023-02-04T03:28:38;100978.69;;;5.84;97.20
45813;BME280;31519;45.408;10.962;2023-02-04T03:31:08;100985.31;;;5.92;97.01
45813;BME280;31519;45.408;10.962;2023-02-04T03:33:36;100976.25;;;5.77;97.97
45813;BME280;31519;45.408;10.962;2023-02-04T03:36:04;100963.06;;;5.72;98.50
45813;BME280;31519;45.408;10.962;2023-02-04T03:38:33;100963.81;;;5.73;98.78
45813;BME280;31519;45.408;10.962;2023-02-04T03:41:01;100966.78;;;5.76;98.43
45813;BME280;31519;45.408;10.962;2023-02-04T03:43:29;100971.25;;;5.76;98.31
45813;BME280;31519;45.408;10.962;2023-02-04T03:46:01;100968.03;;;5.69;99.02
45813;BME280;31519;45.408;10.962;2023-02-04T03:48:29;100959.34;;;5.63;99.08
45813;BME280;31519;45.408;10.962;2023-02-04T03:50:57;100956.66;;;5.58;99.42
45813;BME280;31519;45.408;10.962;2023-02-04T03:53:25;100961.19;;;5.63;98.32
45813;BME280;31519;45.408;10.962;2023-02-04T03:55:54;100976.78;;;5.69;98.23
45813;BME280;31519;45.408;10.962;2023-02-04T03:58:22;100962.72;;;5.54;99.26
45813;BME280;31519;45.408;10.962;2023-02-04T04:00:50;100959.00;;;5.55;99.00
45813;BME280;31519;45.408;10.962;2023-02-04T04:03:18;100980.72;;;5.62;98.16
45813;BME280;31519;45.408;10.962;2023-02-04T04:05:46;100969.94;;;5.78;97.64
45813;BME280;31519;45.408;10.962;2023-02-04T04:08:14;100973.03;;;5.60;97.94
45813;BME280;31519;45.408;10.962;2023-02-04T04:10:43;100993.91;;;5.57;97.65
45813;BME280;31519;45.408;10.962;2023-02-04T04:13:11;100983.31;;;5.52;97.91
45813;BME280;31519;45.408;10.962;2023-02-04T04:15:39;100984.22;;;5.72;96.36
45813;BME280;31519;45.408;10.962;2023-02-04T04:18:07;100994.69;;;5.52;96.01
45813;BME280;31519;45.408;10.962;2023-02-04T04:20:36;100994.06;;;5.30;97.69
45813;BME280;31519;45.408;10.962;2023-02-04T04:23:04;100997.88;;;5.59;96.36
45813;BME280;31519;45.408;10.962;2023-02-04T04:25:32;101003.66;;;5.51;95.56
45813;BME280;31519;45.408;10.962;2023-02-04T04:28:00;100994.09;;;5.35;96.32
45813;BME280;31519;45.408;10.962;2023-02-04T04:30:29;100993.38;;;5.55;95.85
45813;BME280;31519;45.408;10.962;2023-02-04T04:32:57;100995.91;;;5.29;96.50
45813;BME280;31519;45.408;10.962;2023-02-04T04:35:26;100994.31;;;5.28;96.82
45813;BME280;31519;45.408;10.962;2023-02-04T04:37:54;101002.91;;;5.61;95.15
45813;BME280;31519;45.408;10.962;2023-02-04T04:40:23;101002.84;;;5.41;95.44
45813;BME280;31519;45.408;10.962;2023-02-04T04:42:51;100998.84;;;5.38;95.81
45813;BME280;31519;45.408;10.962;2023-02-04T04:45:19;100981.09;;;5.28;95.94
45813;BME280;31519;45.408;10.962;2023-02-04T04:47:47;100965.53;;;5.32;95.97
45813;BME280;31519;45.408;10.962;2023-02-04T04:50:16;100964.22;;;5.34;95.91
45813;BME280;31519;45.408;10.962;2023-02-04T04:52:44;100945.50;;;5.36;95.74
45813;BME280;31519;45.408;10.962;2023-02-04T04:55:12;100934.59;;;5.22;96.93
45813;BME280;31519;45.408;10.962;2023-02-04T04:57:41;100931.22;;;5.37;96.66
45813;BME280;31519;45.408;10.962;2023-02-04T05:00:15;100934.84;;;5.21;96.89
45813;BME280;31519;45.408;10.962;2023-02-04T05:02:44;100946.56;;;5.50;95.88
45813;BME280;31519;45.408;10.962;2023-02-04T05:05:12;100962.66;;;5.39;96.42
45813;BME280;31519;45.408;10.962;2023-02-04T05:07:40;100948.16;;;5.51;96.82
45813;BME280;31519;45.408;10.962;2023-02-04T05:10:09;100967.66;;;5.35;96.87
45813;BME280;31519;45.408;10.962;2023-02-04T05:12:37;100975.91;;;5.44;95.84
45813;BME280;31519;45.408;10.962;2023-02-04T05:15:06;100976.69;;;5.44;96.46
45813;BME280;31519;45.408;10.962;2023-02-04T05:17:34;100975.34;;;5.42;95.90
45813;BME280;31519;45.408;10.962;2023-02-04T05:20:03;100983.75;;;5.33;96.48
45813;BME280;31519;45.408;10.962;2023-02-04T05:22:32;100988.06;;;5.45;96.58
45813;BME280;31519;45.408;10.962;2023-02-04T05:25:00;100997.56;;;5.46;96.04
45813;BME280;31519;45.408;10.962;2023-02-04T05:27:28;101003.09;;;5.44;95.88
45813;BME280;31519;45.408;10.962;2023-02-04T05:29:56;101004.94;;;5.39;95.66
45813;BME280;31519;45.408;10.962;2023-02-04T05:32:24;101018.50;;;5.62;94.83
45813;BME280;31519;45.408;10.962;2023-02-04T05:34:53;101013.06;;;5.32;95.83
45813;BME280;31519;45.408;10.962;2023-02-04T05:37:21;101009.09;;;5.29;95.89
45813;BME280;31519;45.408;10.962;2023-02-04T05:39:49;101008.13;;;5.46;95.56
45813;BME280;31519;45.408;10.962;2023-02-04T05:42:17;100993.06;;;5.46;95.59
45813;BME280;31519;45.408;10.962;2023-02-04T05:44:46;100984.41;;;5.09;96.80
45813;BME280;31519;45.408;10.962;2023-02-04T05:47:14;101009.50;;;5.06;98.25
45813;BME280;31519;45.408;10.962;2023-02-04T05:49:42;101000.25;;;5.04;98.24
45813;BME280;31519;45.408;10.962;2023-02-04T05:52:11;101001.78;;;5.00;98.94
45813;BME280;31519;45.408;10.962;2023-02-04T05:54:39;101004.84;;;5.23;98.09
45813;BME280;31519;45.408;10.962;2023-02-04T05:57:07;101005.16;;;5.37;97.54
45813;BME280;31519;45.408;10.962;2023-02-04T05:59:36;101008.41;;;5.49;96.30
45813;BME280;31519;45.408;10.962;2023-02-04T06:02:04;101019.75;;;5.45;96.79
45813;BME280;31519;45.408;10.962;2023-02-04T06:04:32;101024.72;;;5.31;97.27
45813;BME280;31519;45.408;10.962;2023-02-04T06:07:00;101012.09;;;5.43;96.38
45813;BME280;31519;45.408;10.962;2023-02-04T06:09:30;101020.22;;;5.31;96.90
45813;BME280;31519;45.408;10.962;2023-02-04T06:11:58;101025.63;;;5.57;96.58
45813;BME280;31519;45.408;10.962;2023-02-04T06:14:26;101025.56;;;5.47;96.15
45813;BME280;31519;45.408;10.962;2023-02-04T06:16:54;101015.59;;;5.64;95.62
45813;BME280;31519;45.408;10.962;2023-02-04T06:19:23;101012.56;;;5.35;96.44
45813;BME280;31519;45.408;10.962;2023-02-04T06:21:51;101038.56;;;5.53;95.82
45813;BME280;31519;45.408;10.962;2023-02-04T06:24:20;101049.34;;;5.47;96.15
45813;BME280;31519;45.408;10.962;2023-02-04T06:26:48;101048.28;;;5.48;95.92
45813;BME280;31519;45.408;10.962;2023-02-04T06:29:16;101034.13;;;5.69;95.05
45813;BME280;31519;45.408;10.962;2023-02-04T06:31:44;101045.69;;;5.53;95.74
45813;BME280;31519;45.408;10.962;2023-02-04T06:34:14;101040.19;;;5.69;95.11
45813;BME280;31519;45.408;10.962;2023-02-04T06:36:42;101038.38;;;5.75;94.29
45813;BME280;31519;45.408;10.962;2023-02-04T06:39:11;101059.78;;;5.73;94.28
45813;BME280;31519;45.408;10.962;2023-02-04T06:41:39;101064.75;;;5.65;94.05
45813;BME280;31519;45.408;10.962;2023-02-04T06:44:07;101065.81;;;5.59;94.08
45813;BME280;31519;45.408;10.962;2023-02-04T06:46:35;101080.56;;;5.55;94.46
45813;BME280;31519;45.408;10.962;2023-02-04T06:49:03;101080.03;;;5.53;94.52
45813;BME280;31519;45.408;10.962;2023-02-04T06:51:31;101087.72;;;5.59;94.06
45813;BME280;31519;45.408;10.962;2023-02-04T06:54:00;101086.59;;;5.45;94.75
45813;BME280;31519;45.408;10.962;2023-02-04T06:56:28;101094.25;;;5.47;95.19
45813;BME280;31519;45.408;10.962;2023-02-04T06:58:57;101108.66;;;5.66;95.51
45813;BME280;31519;45.408;10.962;2023-02-04T07:01:25;101100.19;;;5.69;95.46
45813;BME280;31519;45.408;10.962;2023-02-04T07:03:53;101094.16;;;5.78;95.39
45813;BME280;31519;45.408;10.962;2023-02-04T07:06:21;101091.78;;;5.72;95.82
45813;BME280;31519;45.408;10.962;2023-02-04T07:08:49;101110.13;;;5.94;94.95
45813;BME280;31519;45.408;10.962;2023-02-04T07:11:17;101113.91;;;6.08;94.22
45813;BME280;31519;45.408;10.962;2023-02-04T07:13:46;101103.28;;;5.98;94.77
45813;BME280;31519;45.408;10.962;2023-02-04T07:16:14;101093.31;;;6.20;93.92
45813;BME280;31519;45.408;10.962;2023-02-04T07:18:42;101098.59;;;6.20;94.37
45813;BME280;31519;45.408;10.962;2023-02-04T07:21:10;101107.41;;;6.51;93.36
45813;BME280;31519;45.408;10.962;2023-02-04T07:23:39;101108.00;;;6.73;92.68
45813;BME280;31519;45.408;10.962;2023-02-04T07:26:07;101115.66;;;6.85;91.27
45813;BME280;31519;45.408;10.962;2023-02-04T07:28:35;101129.16;;;6.83;91.02
45813;BME280;31519;45.408;10.962;2023-02-04T07:31:03;101120.44;;;6.98;90.42
45813;BME280;31519;45.408;10.962;2023-02-04T07:33:32;101123.63;;;7.05;89.30
45813;BME280;31519;45.408;10.962;2023-02-04T07:36:00;101127.31;;;6.94;88.20
45813;BME280;31519;45.408;10.962;2023-02-04T07:38:28;101132.09;;;6.92;88.82
45813;BME280;31519;45.408;10.962;2023-02-04T07:40:56;101132.88;;;7.02;88.20
45813;BME280;31519;45.408;10.962;2023-02-04T07:43:25;101145.06;;;6.98;87.55
45813;BME280;31519;45.408;10.962;2023-02-04T07:45:53;101137.69;;;7.05;87.29
45813;BME280;31519;45.408;10.962;2023-02-04T07:48:21;101139.78;;;7.08;87.09
45813;BME280;31519;45.408;10.962;2023-02-04T07:50:49;101139.78;;;7.13;87.76
45813;BME280;31519;45.408;10.962;2023-02-04T07:53:18;101136.06;;;7.20;86.69
45813;BME280;31519;45.408;10.962;2023-02-04T07:55:46;101137.91;;;7.39;86.58
45813;BME280;31519;45.408;10.962;2023-02-04T07:58:14;101129.41;;;7.52;85.84
45813;BME280;31519;45.408;10.962;2023-02-04T08:00:42;101129.44;;;7.17;86.57
45813;BME280;31519;45.408;10.962;2023-02-04T08:03:10;101143.75;;;6.96;86.68
45813;BME280;31519;45.408;10.962;2023-02-04T08:05:38;101139.25;;;7.17;86.72
45813;BME280;31519;45.408;10.962;2023-02-04T08:08:06;101138.47;;;7.31;86.23
45813;BME280;31519;45.408;10.962;2023-02-04T08:10:34;101141.38;;;7.35;85.24
45813;BME280;31519;45.408;10.962;2023-02-04T08:13:03;101139.00;;;7.23;85.79
45813;BME280;31519;45.408;10.962;2023-02-04T08:15:31;101147.44;;;7.61;84.91
45813;BME280;31519;45.408;10.962;2023-02-04T08:17:59;101158.53;;;7.88;84.13
45813;BME280;31519;45.408;10.962;2023-02-04T08:20:27;101162.00;;;7.68;83.99
45813;BME280;31519;45.408;10.962;2023-02-04T08:22:56;101158.31;;;7.54;85.40
45813;BME280;31519;45.408;10.962;2023-02-04T08:25:24;101160.94;;;7.69;85.22
45813;BME280;31519;45.408;10.962;2023-02-04T08:27:53;101175.81;;;7.65;84.56
45813;BME280;31519;45.408;10.962;2023-02-04T08:30:21;101169.38;;;7.91;84.03
45813;BME280;31519;45.408;10.962;2023-02-04T08:32:49;101164.22;;;8.30;81.11
45813;BME280;31519;45.408;10.962;2023-02-04T08:35:17;101155.44;;;8.40;80.58
45813;BME280;31519;45.408;10.962;2023-02-04T08:37:46;101155.53;;;8.74;80.57
45813;BME280;31519;45.408;10.962;2023-02-04T08:40:14;101152.09;;;9.07;79.94
45813;BME280;31519;45.408;10.962;2023-02-04T08:42:42;101147.78;;;9.16;79.53
45813;BME280;31519;45.408;10.962;2023-02-04T08:45:11;101155.84;;;9.64;76.53
45813;BME280;31519;45.408;10.962;2023-02-04T08:47:39;101146.47;;;9.71;76.84
45813;BME280;31519;45.408;10.962;2023-02-04T08:50:09;101165.59;;;9.73;76.85
45813;BME280;31519;45.408;10.962;2023-02-04T08:52:38;101190.19;;;10.13;75.36
45813;BME280;31519;45.408;10.962;2023-02-04T08:55:07;101178.81;;;10.07;76.18
45813;BME280;31519;45.408;10.962;2023-02-04T08:57:35;101162.31;;;10.05;76.61
45813;BME280;31519;45.408;10.962;2023-02-04T09:00:03;101167.16;;;10.27;75.71
45813;BME280;31519;45.408;10.962;2023-02-04T09:02:32;101172.41;;;10.32;74.31
45813;BME280;31519;45.408;10.962;2023-02-04T09:05:01;101170.88;;;10.02;75.98
45813;BME280;31519;45.408;10.962;2023-02-04T09:07:29;101174.53;;;10.35;75.10
45813;BME280;31519;45.408;10.962;2023-02-04T09:09:57;101160.28;;;10.63;73.78
45813;BME280;31519;45.408;10.962;2023-02-04T09:12:26;101173.44;;;11.11;71.61
45813;BME280;31519;45.408;10.962;2023-02-04T09:14:54;101173.25;;;11.07;71.07
45813;BME280;31519;45.408;10.962;2023-02-04T09:17:23;101161.88;;;10.64;72.19
45813;BME280;31519;45.408;10.962;2023-02-04T09:19:51;101185.38;;;10.81;72.32
45813;BME280;31519;45.408;10.962;2023-02-04T09:22:19;101193.19;;;10.91;70.94
45813;BME280;31519;45.408;10.962;2023-02-04T09:24:47;101188.59;;;10.78;72.72
45813;BME280;31519;45.408;10.962;2023-02-04T09:27:15;101193.84;;;10.83;73.17
45813;BME280;31519;45.408;10.962;2023-02-04T09:29:43;101196.38;;;10.93;73.08
45813;BME280;31519;45.408;10.962;2023-02-04T09:32:12;101197.53;;;11.38;72.12
45813;BME280;31519;45.408;10.962;2023-02-04T09:34:40;101207.28;;;10.54;72.59
45813;BME280;31519;45.408;10.962;2023-02-04T09:37:09;101209.41;;;10.57;73.62
45813;BME280;31519;45.408;10.962;2023-02-04T09:39:37;101195.50;;;10.79;73.57
45813;BME280;31519;45.408;10.962;2023-02-04T09:42:05;101200.25;;;11.52;71.96
45813;BME280;31519;45.408;10.962;2023-02-04T09:44:33;101202.25;;;11.09;72.34
45813;BME280;31519;45.408;10.962;2023-02-04T09:47:02;101197.41;;;11.30;72.39
45813;BME280;31519;45.408;10.962;2023-02-04T09:49:31;101205.59;;;12.12;70.11
45813;BME280;31519;45.408;10.962;2023-02-04T09:52:00;101202.63;;;11.99;69.52
45813;BME280;31519;45.408;10.962;2023-02-04T09:54:27;101201.94;;;12.08;67.91
45813;BME280;31519;45.408;10.962;2023-02-04T09:56:56;101204.81;;;12.11;67.96
45813;BME280;31519;45.408;10.962;2023-02-04T09:59:26;101197.78;;;12.15;67.38
45813;BME280;31519;45.408;10.962;2023-02-04T10:02:01;101204.91;;;12.33;69.27
45813;BME280;31519;45.408;10.962;2023-02-04T10:04:29;101222.69;;;13.37;65.92
45813;BME280;31519;45.408;10.962;2023-02-04T10:06:58;101229.31;;;12.68;67.18
45813;BME280;31519;45.408;10.962;2023-02-04T10:09:26;101217.59;;;12.41;68.92
45813;BME280;31519;45.408;10.962;2023-02-04T10:11:55;101223.13;;;12.45;69.36
45813;BME280;31519;45.408;10.962;2023-02-04T10:14:23;101220.56;;;12.89;68.58
45813;BME280;31519;45.408;10.962;2023-02-04T10:16:58;101232.50;;;13.72;65.37
45813;BME280;31519;45.408;10.962;2023-02-04T10:19:28;101241.34;;;14.04;63.98
45813;BME280;31519;45.408;10.962;2023-02-04T10:21:58;101247.66;;;14.39;62.38
45813;BME280;31519;45.408;10.962;2023-02-04T10:24:27;101233.88;;;14.88;60.79
45813;BME280;31519;45.408;10.962;2023-02-04T10:27:09;101222.13;;;14.02;62.25
45813;BME280;31519;45.408;10.962;2023-02-04T10:29:38;101222.38;;;13.39;65.69
45813;BME280;31519;45.408;10.962;2023-02-04T10:32:31;101218.53;;;14.15;63.71
45813;BME280;31519;45.408;10.962;2023-02-04T10:35:01;101227.84;;;14.57;61.56
45813;BME280;31519;45.408;10.962;2023-02-04T10:37:30;101228.72;;;14.44;61.43
45813;BME280;31519;45.408;10.962;2023-02-04T10:39:58;101227.09;;;15.25;59.83
45813;BME280;31519;45.408;10.962;2023-02-04T10:42:28;101222.47;;;15.60;58.17
45813;BME280;31519;45.408;10.962;2023-02-04T10:44:57;101211.84;;;16.19;56.11
45813;BME280;31519;45.408;10.962;2023-02-04T10:47:27;101221.53;;;15.65;57.23
45813;BME280;31519;45.408;10.962;2023-02-04T10:50:02;101232.38;;;15.77;56.57
45813;BME280;31519;45.408;10.962;2023-02-04T10:52:37;101212.75;;;16.23;55.90
45813;BME280;31519;45.408;10.962;2023-02-04T10:55:12;101196.75;;;16.56;54.52
45813;BME280;31519;45.408;10.962;2023-02-04T10:57:44;101198.31;;;16.86;53.76
45813;BME280;31519;45.408;10.962;2023-02-04T11:00:19;101200.03;;;16.11;55.72
45813;BME280;31519;45.408;10.962;2023-02-04T11:02:58;101184.53;;;15.70;55.99
45813;BME280;31519;45.408;10.962;2023-02-04T11:05:31;101193.44;;;15.28;57.13
45813;BME280;31519;45.408;10.962;2023-02-04T11:08:00;101176.09;;;16.48;54.84
45813;BME280;31519;45.408;10.962;2023-02-04T11:10:31;101173.44;;;16.89;53.35
45813;BME280;31519;45.408;10.962;2023-02-04T11:13:04;101185.19;;;16.34;54.61
45813;BME280;31519;45.408;10.962;2023-02-04T11:20:50;101181.78;;;16.25;54.32
45813;BME280;31519;45.408;10.962;2023-02-04T11:26:13;101185.34;;;16.67;53.37
45813;BME280;31519;45.408;10.962;2023-02-04T11:31:28;101175.81;;;16.91;52.25
45813;BME280;31519;45.408;10.962;2023-02-04T11:34:11;101188.44;;;17.11;51.73
45813;BME280;31519;45.408;10.962;2023-02-04T11:39:28;101193.00;;;16.98;52.27
45813;BME280;31519;45.408;10.962;2023-02-04T11:41:59;101185.06;;;17.80;50.86
45813;BME280;31519;45.408;10.962;2023-02-04T11:44:29;101175.78;;;17.11;51.44
45813;BME280;31519;45.408;10.962;2023-02-04T11:46:59;101177.13;;;16.34;52.70
45813;BME280;31519;45.408;10.962;2023-02-04T11:49:29;101164.63;;;18.15;49.51
45813;BME280;31519;45.408;10.962;2023-02-04T11:52:12;101171.78;;;18.59;47.18
45813;BME280;31519;45.408;10.962;2023-02-04T11:54:41;101174.69;;;19.22;46.63
45813;BME280;31519;45.408;10.962;2023-02-04T11:57:10;101166.41;;;19.59;46.23
45813;BME280;31519;45.408;10.962;2023-02-04T11:59:39;101165.19;;;17.84;48.51
45813;BME280;31519;45.408;10.962;2023-02-04T12:02:21;101180.91;;;18.06;49.20
45813;BME280;31519;45.408;10.962;2023-02-04T12:05:10;101170.81;;;17.91;49.86
45813;BME280;31519;45.408;10.962;2023-02-04T12:07:38;101182.81;;;18.54;48.55
45813;BME280;31519;45.408;10.962;2023-02-04T12:12:54;101186.09;;;18.24;49.57
45813;BME280;31519;45.408;10.962;2023-02-04T12:15:33;101183.78;;;19.02;48.77
45813;BME280;31519;45.408;10.962;2023-02-04T12:18:10;101176.25;;;18.68;48.19
45813;BME280;31519;45.408;10.962;2023-02-04T12:20:43;101164.38;;;18.20;48.83
45813;BME280;31519;45.408;10.962;2023-02-04T12:23:11;101165.97;;;18.21;47.79
45813;BME280;31519;45.408;10.962;2023-02-04T12:25:40;101155.16;;;17.60;49.01
45813;BME280;31519;45.408;10.962;2023-02-04T12:28:08;101155.28;;;18.25;47.38
45813;BME280;31519;45.408;10.962;2023-02-04T12:30:36;101156.78;;;18.10;47.61
45813;BME280;31519;45.408;10.962;2023-02-04T12:33:04;101161.34;;;18.34;46.82
45813;BME280;31519;45.408;10.962;2023-02-04T12:35:34;101160.66;;;19.60;44.78
45813;BME280;31519;45.408;10.962;2023-02-04T12:38:03;101159.13;;;18.76;46.44
45813;BME280;31519;45.408;10.962;2023-02-04T12:40:31;101155.06;;;19.53;45.73
45813;BME280;31519;45.408;10.962;2023-02-04T12:43:00;101152.13;;;20.24;44.10
45813;BME280;31519;45.408;10.962;2023-02-04T12:45:28;101158.06;;;20.65;42.77
45813;BME280;31519;45.408;10.962;2023-02-04T12:47:56;101156.25;;;20.53;43.37
45813;BME280;31519;45.408;10.962;2023-02-04T12:50:25;101152.63;;;21.22;41.58
45813;BME280;31519;45.408;10.962;2023-02-04T12:52:57;101157.97;;;21.19;41.18
45813;BME280;31519;45.408;10.962;2023-02-04T12:55:27;101145.03;;;21.77;39.13
45813;BME280;31519;45.408;10.962;2023-02-04T12:57:56;101142.28;;;21.51;39.03
45813;BME280;31519;45.408;10.962;2023-02-04T13:00:24;101141.47;;;20.66;40.30
45813;BME280;31519;45.408;10.962;2023-02-04T13:02:54;101139.81;;;20.81;41.23
45813;BME280;31519;45.408;10.962;2023-02-04T13:05:22;101150.56;;;20.77;41.53
45813;BME280;31519;45.408;10.962;2023-02-04T13:07:50;101149.84;;;19.60;42.70
45813;BME280;31519;45.408;10.962;2023-02-04T13:10:19;101134.84;;;20.29;41.12
45813;BME280;31519;45.408;10.962;2023-02-04T13:12:49;101133.41;;;20.16;42.02
45813;BME280;31519;45.408;10.962;2023-02-04T13:15:18;101134.59;;;20.92;40.80